Time;durP1;ratioP1;P1;durP2;ratioP2;P2;SDS_P1;SDS_P2;PMS_P1;PMS_P2;Temp;Humidity;BMP_temperature;BMP_pressure;BME280_temperature;BME280_humidity;BME280_pressure;Samples;Min_cycle;Max_cycle;Signal;HPM_P1;HPM_P2
2023/06/06 00:01:12;;;;;;;0.50;0.50;;;11.20;99.90;;;;;;5094216;28;20181;-71
2023/06/06 00:03:38;;;;;;;0.50;0.50;;;11.20;99.90;;;;;;5093700;28;20040;-71
2023/06/06 00:06:04;;;;;;;0.40;0.40;;;11.20;99.90;;;;;;5093617;28;20040;-72
2023/06/06 00:08:33;;;;;;;0.52;0.52;;;11.10;99.90;;;;;;5093785;28;20048;-71
2023/06/06 00:10:59;;;;;;;0.50;0.50;;;11.10;99.90;;;;;;5094193;28;20438;-72
2023/06/06 00:13:27;;;;;;;0.40;0.40;;;11.10;99.90;;;;;;5094164;28;20044;-72
2023/06/06 00:15:57;;;;;;;0.50;0.50;;;11.10;99.90;;;;;;5094126;28;20429;-72
2023/06/06 00:18:26;;;;;;;0.40;0.40;;;11.10;99.90;;;;;;5093991;28;20043;-71
2023/06/06 00:20:53;;;;;;;0.40;0.40;;;11.00;99.90;;;;;;5093743;28;20040;-72
2023/06/06 00:23:20;;;;;;;0.50;0.50;;;11.00;99.90;;;;;;5093233;28;20367;-71
2023/06/06 00:25:47;;;;;;;0.50;0.50;;;11.10;99.90;;;;;;5094119;28;20505;-71
2023/06/06 00:28:13;;;;;;;0.40;0.40;;;11.00;99.90;;;;;;5094060;28;20032;-71
2023/06/06 00:30:38;;;;;;;0.50;0.50;;;11.00;99.90;;;;;;5093500;28;20093;-71
2023/06/06 00:33:04;;;;;;;0.50;0.50;;;10.90;99.90;;;;;;5093609;28;20410;-72
2023/06/06 00:35:30;;;;;;;0.40;0.40;;;10.90;99.90;;;;;;5093434;28;20040;-72
2023/06/06 00:37:55;;;;;;;0.40;0.40;;;10.90;99.90;;;;;;5093536;28;20524;-71
2023/06/06 00:40:21;;;;;;;0.40;0.40;;;10.90;99.90;;;;;;5093228;28;20055;-72
2023/06/06 00:42:46;;;;;;;0.40;0.40;;;10.90;99.90;;;;;;5093538;28;20349;-72
2023/06/06 00:45:12;;;;;;;0.40;0.40;;;10.90;99.90;;;;;;5093543;28;20074;-72
2023/06/06 00:47:41;;;;;;;0.50;0.50;;;10.80;99.90;;;;;;5093497;28;20488;-72
2023/06/06 00:50:08;;;;;;;2.35;2.15;;;10.90;99.90;;;;;;5093359;28;20421;-72
2023/06/06 00:52:35;;;;;;;0.60;0.60;;;10.80;99.90;;;;;;5093364;28;20448;-71
2023/06/06 00:55:01;;;;;;;0.50;0.50;;;10.80;99.90;;;;;;5093158;28;20482;-72
2023/06/06 00:57:27;;;;;;;0.85;0.85;;;10.80;99.90;;;;;;5093644;28;20040;-71
2023/06/06 00:59:54;;;;;;;0.50;0.50;;;10.80;99.90;;;;;;5093601;28;20452;-71
2023/06/06 01:02:20;;;;;;;0.40;0.40;;;10.80;99.90;;;;;;5108932;28;20089;-71
2023/06/06 01:04:46;;;;;;;0.50;0.50;;;11.30;99.90;;;;;;5093357;28;20479;-72
2023/06/06 01:07:17;;;;;;;0.50;0.50;;;10.80;99.90;;;;;;5093233;28;20086;-71
2023/06/06 01:09:44;;;;;;;0.60;0.60;;;10.80;99.90;;;;;;5093586;28;20040;-71
2023/06/06 01:12:18;;;;;;;0.40;0.40;;;10.80;99.90;;;;;;5093570;28;20044;-72
2023/06/06 01:14:54;;;;;;;0.43;0.43;;;11.40;99.90;;;;;;5093475;28;20048;-71
2023/06/06 01:17:25;;;;;;;0.50;0.50;;;10.80;99.90;;;;;;5093194;28;20044;-72
2023/06/06 01:19:56;;;;;;;0.40;0.40;;;10.80;99.90;;;;;;5093433;28;20483;-72
2023/06/06 01:22:23;;;;;;;0.50;0.50;;;10.70;99.90;;;;;;5093226;28;20032;-72
2023/06/06 01:24:53;;;;;;;0.52;0.52;;;10.70;99.90;;;;;;5093211;28;20047;-72
2023/06/06 01:27:21;;;;;;;0.50;0.50;;;10.70;99.90;;;;;;5093007;28;20036;-71
2023/06/06 01:29:47;;;;;;;0.40;0.40;;;10.70;99.90;;;;;;5093021;28;20093;-71
2023/06/06 01:32:36;;;;;;;0.70;0.70;;;10.70;99.90;;;;;;5092959;28;20400;-71
2023/06/06 01:35:14;;;;;;;;;;;10.70;99.90;;;;;;5094153;28;20083;-71
2023/06/06 01:37:49;;;;;;;0.50;0.50;;;10.60;99.90;;;;;;5096606;28;19916;-71
2023/06/06 01:40:19;;;;;;;0.47;0.47;;;10.50;99.90;;;;;;5096702;28;20071;-71
2023/06/06 01:42:48;;;;;;;0.50;0.50;;;10.60;99.90;;;;;;5096485;28;20043;-72
2023/06/06 01:45:17;;;;;;;0.60;0.60;;;10.70;99.90;;;;;;5096411;28;20083;-72
2023/06/06 01:47:43;;;;;;;0.50;0.50;;;10.60;99.90;;;;;;5096162;28;20055;-72
2023/06/06 01:50:10;;;;;;;0.73;0.73;;;10.60;99.90;;;;;;5096293;28;20036;-71
2023/06/06 01:52:36;;;;;;;0.50;0.50;;;10.60;99.90;;;;;;5096301;28;20123;-72
2023/06/06 01:55:03;;;;;;;0.60;0.60;;;11.00;99.90;;;;;;5096302;28;20040;-71
2023/06/06 01:57:29;;;;;;;0.50;0.50;;;10.50;99.90;;;;;;5096170;28;20043;-71
2023/06/06 01:59:55;;;;;;;1.70;1.60;;;10.50;99.90;;;;;;5096222;28;20039;-71
2023/06/06 02:02:21;;;;;;;0.50;0.50;;;10.60;99.90;;;;;;5095889;28;20044;-72
2023/06/06 02:04:48;;;;;;;0.70;0.70;;;10.50;99.90;;;;;;5096369;28;20044;-71
2023/06/06 02:07:15;;;;;;;0.50;0.50;;;10.50;99.90;;;;;;5096090;28;20046;-71
2023/06/06 02:09:42;;;;;;;0.50;0.50;;;10.50;99.90;;;;;;5095903;28;20466;-71
2023/06/06 02:12:09;;;;;;;0.57;0.57;;;10.60;99.90;;;;;;5095939;28;20040;-72
2023/06/06 02:14:35;;;;;;;0.50;0.50;;;10.50;99.90;;;;;;5096008;28;20040;-72
2023/06/06 02:17:00;;;;;;;0.50;0.50;;;10.40;99.90;;;;;;5095885;28;20525;-71
2023/06/06 02:19:27;;;;;;;0.50;0.50;;;10.50;99.90;;;;;;5095762;28;20091;-71
2023/06/06 02:21:52;;;;;;;0.50;0.50;;;10.40;99.90;;;;;;5095855;28;20040;-72
2023/06/06 02:24:18;;;;;;;0.50;0.50;;;10.40;99.90;;;;;;5095771;28;20761;-71
2023/06/06 02:26:44;;;;;;;0.50;0.50;;;10.40;99.90;;;;;;5095432;28;20410;-72
2023/06/06 02:29:10;;;;;;;0.50;0.50;;;10.40;99.90;;;;;;5096383;28;20031;-72
2023/06/06 02:31:36;;;;;;;0.50;0.50;;;10.90;99.90;;;;;;5095918;28;20043;-71
2023/06/06 02:34:02;;;;;;;0.50;0.50;;;10.30;99.90;;;;;;5095636;28;20139;-72
2023/06/06 02:36:29;;;;;;;1.55;1.45;;;10.30;99.90;;;;;;5095525;28;20047;-71
2023/06/06 02:38:56;;;;;;;0.50;0.50;;;10.40;99.90;;;;;;5095486;28;20085;-71
2023/06/06 02:41:21;;;;;;;0.60;0.60;;;10.30;99.90;;;;;;5095364;28;20100;-71
2023/06/06 02:43:47;;;;;;;0.50;0.50;;;10.30;99.90;;;;;;5095375;28;20535;-71
2023/06/06 02:46:13;;;;;;;0.70;0.70;;;10.30;99.90;;;;;;5094770;28;20385;-71
2023/06/06 02:48:39;;;;;;;1.10;1.00;;;10.20;99.90;;;;;;5094275;28;20043;-71
2023/06/06 02:51:06;;;;;;;0.98;0.98;;;10.30;99.90;;;;;;5095294;28;20121;-71
2023/06/06 02:53:32;;;;;;;0.50;0.50;;;10.20;99.90;;;;;;5095203;28;20173;-72
2023/06/06 02:55:58;;;;;;;0.60;0.60;;;10.50;99.90;;;;;;5095148;28;20127;-71
2023/06/06 02:58:30;;;;;;;0.60;0.60;;;10.40;99.90;;;;;;5095140;28;20059;-71
2023/06/06 03:00:57;;;;;;;0.50;0.50;;;10.20;99.90;;;;;;5094670;28;20048;-71
2023/06/06 03:03:23;;;;;;;0.75;0.75;;;10.20;99.90;;;;;;5095005;28;20101;-71
2023/06/06 03:05:51;;;;;;;0.60;0.60;;;10.20;99.90;;;;;;5094903;28;20039;-71
2023/06/06 03:08:17;;;;;;;0.50;0.50;;;10.20;99.90;;;;;;5094781;28;20032;-71
2023/06/06 03:10:47;;;;;;;0.60;0.60;;;10.20;99.90;;;;;;5094650;28;20050;-71
2023/06/06 03:13:13;;;;;;;0.50;0.50;;;10.10;99.90;;;;;;5094682;28;20028;-71
2023/06/06 03:15:40;;;;;;;0.50;0.50;;;10.10;99.90;;;;;;5094911;28;20047;-71
2023/06/06 03:18:12;;;;;;;0.50;0.50;;;10.10;99.90;;;;;;5095016;28;20130;-71
2023/06/06 03:20:41;;;;;;;19.73;5.53;;;10.10;99.90;;;;;;5094768;28;20379;-72
2023/06/06 03:23:10;;;;;;;0.68;0.68;;;10.10;99.90;;;;;;5094501;28;20387;-71
2023/06/06 03:25:36;;;;;;;0.50;0.50;;;10.10;99.90;;;;;;5094579;28;20040;-70
2023/06/06 03:28:02;;;;;;;0.50;0.50;;;10.10;99.90;;;;;;5093328;28;20122;-71
2023/06/06 03:30:27;;;;;;;0.50;0.50;;;10.10;99.90;;;;;;5093270;28;20036;-71
2023/06/06 03:32:53;;;;;;;0.55;0.55;;;11.10;99.90;;;;;;5094414;28;20051;-71
2023/06/06 03:35:19;;;;;;;0.50;0.50;;;10.10;99.90;;;;;;5094398;28;20028;-72
2023/06/06 03:37:45;;;;;;;0.50;0.50;;;10.10;99.90;;;;;;5094296;28;20040;-71
2023/06/06 03:40:12;;;;;;;0.65;0.65;;;10.10;99.90;;;;;;5094315;28;20040;-71
2023/06/06 03:42:38;;;;;;;0.90;0.90;;;10.10;99.90;;;;;;5094860;28;20044;-71
2023/06/06 03:45:05;;;;;;;0.98;0.95;;;10.10;99.90;;;;;;5094194;28;20585;-71
2023/06/06 03:47:30;;;;;;;;;;;10.10;99.90;;;;;;5094413;28;20032;-70
2023/06/06 03:49:56;;;;;;;0.50;0.50;;;10.10;99.90;;;;;;5092713;28;19916;-71
2023/06/06 03:52:22;;;;;;;0.50;0.50;;;10.70;99.90;;;;;;5094010;28;20160;-71
2023/06/06 03:54:48;;;;;;;0.50;0.50;;;10.10;99.90;;;;;;5093864;28;20054;-71
2023/06/06 03:57:14;;;;;;;0.55;0.55;;;10.40;99.90;;;;;;5093611;28;20123;-71
2023/06/06 03:59:41;;;;;;;1.08;1.05;;;10.30;99.90;;;;;;5093904;28;20043;-71
2023/06/06 04:02:06;;;;;;;1.03;1.03;;;10.30;99.90;;;;;;5093901;28;20040;-72
2023/06/06 04:04:32;;;;;;;0.60;0.60;;;10.40;99.90;;;;;;5093564;28;20054;-71
2023/06/06 04:06:58;;;;;;;0.50;0.50;;;10.30;99.90;;;;;;5093578;28;20040;-71
2023/06/06 04:09:24;;;;;;;0.57;0.57;;;10.40;99.90;;;;;;5093676;28;20044;-71
2023/06/06 04:11:49;;;;;;;0.50;0.50;;;10.40;99.90;;;;;;5092760;28;20051;-71
2023/06/06 04:14:15;;;;;;;0.80;0.80;;;10.40;99.90;;;;;;5094128;28;20062;-71
2023/06/06 04:16:41;;;;;;;0.50;0.50;;;10.40;99.90;;;;;;5093562;28;20032;-70
2023/06/06 04:19:07;;;;;;;1.33;1.23;;;10.60;99.90;;;;;;5093628;28;20410;-71
2023/06/06 04:21:33;;;;;;;0.50;0.50;;;10.40;99.90;;;;;;5093468;28;20093;-71
2023/06/06 04:24:00;;;;;;;0.47;0.47;;;10.40;99.90;;;;;;5093603;28;20040;-70
2023/06/06 04:26:31;;;;;;;1.20;1.17;;;10.50;99.90;;;;;;5093974;28;20122;-71
2023/06/06 04:29:00;;;;;;;0.50;0.50;;;10.50;99.90;;;;;;5093526;28;20051;-71
2023/06/06 04:31:28;;;;;;;0.40;0.40;;;10.60;99.90;;;;;;5093253;28;20075;-70
2023/06/06 04:33:55;;;;;;;1.35;1.25;;;10.60;99.90;;;;;;5093487;28;20132;-71
2023/06/06 04:36:22;;;;;;;0.47;0.47;;;11.00;99.90;;;;;;5093437;28;20059;-70
2023/06/06 04:38:49;;;;;;;;;;;10.70;99.90;;;;;;5093830;28;20040;-72
2023/06/06 04:41:16;;;;;;;0.50;0.50;;;10.80;99.90;;;;;;5093946;28;19916;-70
2023/06/06 04:43:42;;;;;;;;;;;11.00;99.90;;;;;;5093658;28;20076;-71
2023/06/06 04:46:08;;;;;;;0.50;0.50;;;11.10;99.90;;;;;;5126394;28;19916;-72
2023/06/06 04:48:33;;;;;;;0.70;0.70;;;11.10;99.90;;;;;;5093272;28;20042;-72
2023/06/06 04:50:59;;;;;;;0.60;0.60;;;11.10;99.90;;;;;;5092929;28;20032;-71
2023/06/06 04:53:25;;;;;;;0.50;0.50;;;11.10;99.90;;;;;;5093188;28;20533;-70
2023/06/06 04:55:55;;;;;;;0.50;0.50;;;11.70;99.90;;;;;;5093361;28;20036;-71
2023/06/06 04:58:21;;;;;;;0.40;0.40;;;11.10;99.90;;;;;;5093484;28;20036;-71
2023/06/06 05:00:48;;;;;;;0.50;0.50;;;11.20;99.90;;;;;;5093417;28;20119;-70
2023/06/06 05:03:19;;;;;;;0.50;0.50;;;11.20;99.90;;;;;;5093004;28;20316;-71
2023/06/06 05:05:49;;;;;;;0.70;0.70;;;11.30;99.90;;;;;;5093270;28;20051;-71
2023/06/06 05:08:15;;;;;;;0.50;0.50;;;11.30;99.90;;;;;;5092028;28;20103;-72
2023/06/06 05:10:40;;;;;;;0.40;0.40;;;11.30;99.90;;;;;;5096516;28;20487;-70
2023/06/06 05:13:06;;;;;;;0.50;0.50;;;11.40;99.90;;;;;;5097054;28;20383;-70
2023/06/06 05:15:32;;;;;;;0.40;0.40;;;11.50;99.90;;;;;;5096957;28;20032;-70
2023/06/06 05:17:57;;;;;;;0.75;0.75;;;11.50;99.90;;;;;;5096840;28;20053;-70
2023/06/06 05:20:23;;;;;;;0.50;0.50;;;11.60;99.90;;;;;;5097000;28;20410;-70
2023/06/06 05:22:49;;;;;;;0.40;0.40;;;11.70;99.90;;;;;;5096949;28;20421;-70
2023/06/06 05:25:15;;;;;;;0.40;0.40;;;11.90;99.90;;;;;;5097171;28;20375;-71
2023/06/06 05:27:41;;;;;;;0.77;0.77;;;12.10;99.90;;;;;;5096891;28;20036;-71
2023/06/06 05:30:07;;;;;;;0.80;0.80;;;12.30;99.90;;;;;;5096851;28;20032;-71
2023/06/06 05:32:33;;;;;;;0.40;0.40;;;12.50;99.90;;;;;;5096956;28;20083;-71
2023/06/06 05:35:01;;;;;;;0.50;0.50;;;12.60;99.90;;;;;;5096571;28;20302;-71
2023/06/06 05:37:30;;;;;;;0.50;0.50;;;12.90;99.90;;;;;;5096510;28;20082;-71
2023/06/06 05:39:56;;;;;;;0.60;0.60;;;13.10;99.90;;;;;;5097030;28;20036;-71
2023/06/06 05:42:22;;;;;;;0.50;0.50;;;13.30;99.90;;;;;;5096286;28;20075;-71
2023/06/06 05:44:51;;;;;;;0.50;0.50;;;13.30;99.90;;;;;;5096312;28;20071;-70
2023/06/06 05:47:17;;;;;;;5.35;2.05;;;13.50;99.90;;;;;;5096449;28;20047;-71
2023/06/06 05:49:43;;;;;;;0.40;0.40;;;13.60;99.90;;;;;;5096393;28;20032;-71
2023/06/06 05:52:08;;;;;;;0.50;0.50;;;13.70;99.90;;;;;;5096341;28;20039;-70
2023/06/06 05:54:37;;;;;;;0.52;0.52;;;13.90;99.90;;;;;;5096398;28;20270;-71
2023/06/06 05:57:17;;;;;;;0.50;0.50;;;14.20;99.90;;;;;;5096156;28;20464;-71
2023/06/06 05:59:42;;;;;;;0.70;0.70;;;14.30;99.90;;;;;;5096414;28;20044;-71
2023/06/06 06:02:08;;;;;;;0.50;0.50;;;14.50;99.90;;;;;;5096252;28;20053;-71
2023/06/06 06:04:34;;;;;;;0.40;0.40;;;14.60;99.90;;;;;;5097008;28;20077;-71
2023/06/06 06:07:00;;;;;;;0.50;0.50;;;14.70;99.90;;;;;;5096159;28;20047;-71
2023/06/06 06:09:25;;;;;;;0.57;0.57;;;14.80;99.90;;;;;;5095373;28;20309;-71
2023/06/06 06:11:51;;;;;;;0.40;0.40;;;15.00;99.90;;;;;;5095755;28;20749;-70
2023/06/06 06:14:17;;;;;;;0.40;0.40;;;15.00;99.90;;;;;;5095722;28;20048;-71
2023/06/06 06:16:42;;;;;;;0.67;0.67;;;14.80;99.90;;;;;;5094735;28;20044;-72
2023/06/06 06:19:08;;;;;;;0.40;0.40;;;14.90;99.90;;;;;;5095895;28;20059;-71
2023/06/06 06:21:35;;;;;;;1.00;0.93;;;14.80;99.90;;;;;;5095075;28;20468;-71
2023/06/06 06:24:01;;;;;;;0.40;0.40;;;14.80;99.90;;;;;;5095697;28;20539;-70
2023/06/06 06:26:26;;;;;;;0.40;0.40;;;14.90;99.90;;;;;;5095765;28;20075;-71
2023/06/06 06:28:54;;;;;;;0.40;0.40;;;15.00;99.90;;;;;;5095751;28;20039;-72
2023/06/06 06:31:20;;;;;;;0.40;0.40;;;15.00;99.90;;;;;;5095562;28;20100;-71
2023/06/06 06:33:46;;;;;;;0.40;0.40;;;15.00;99.90;;;;;;5095413;28;20052;-71
2023/06/06 06:36:11;;;;;;;0.77;0.77;;;15.10;99.90;;;;;;5095572;28;20051;-71
2023/06/06 06:38:37;;;;;;;0.30;0.30;;;15.20;99.90;;;;;;5095525;28;20141;-71
2023/06/06 06:41:03;;;;;;;0.40;0.40;;;15.30;99.90;;;;;;5095595;28;20035;-71
2023/06/06 06:43:29;;;;;;;1.30;1.23;;;15.30;99.90;;;;;;5095423;28;20115;-71
2023/06/06 06:45:55;;;;;;;0.73;0.70;;;15.40;99.90;;;;;;5095346;28;20749;-71
2023/06/06 06:48:20;;;;;;;0.40;0.40;;;15.40;99.90;;;;;;5095974;28;20043;-71
2023/06/06 06:50:46;;;;;;;0.40;0.40;;;15.60;99.90;;;;;;5095156;28;20111;-71
2023/06/06 06:53:13;;;;;;;1.40;0.90;;;15.60;99.90;;;;;;5095456;28;20079;-72
2023/06/06 06:55:44;;;;;;;0.50;0.50;;;15.70;99.90;;;;;;5095202;28;20425;-71
2023/06/06 06:58:13;;;;;;;0.60;0.60;;;15.80;99.90;;;;;;5095234;28;20075;-71
2023/06/06 07:00:39;;;;;;;0.40;0.40;;;15.80;99.90;;;;;;5095541;28;20050;-71
2023/06/06 07:03:05;;;;;;;0.60;0.60;;;15.80;99.90;;;;;;5094884;28;20168;-72
2023/06/06 07:05:31;;;;;;;1.83;1.37;;;15.80;99.90;;;;;;5095368;28;20054;-71
2023/06/06 07:07:58;;;;;;;0.50;0.50;;;15.90;99.90;;;;;;5094919;28;20055;-72
2023/06/06 07:10:25;;;;;;;0.60;0.60;;;15.70;99.90;;;;;;5094712;28;20040;-71
2023/06/06 07:12:52;;;;;;;0.40;0.40;;;16.10;99.90;;;;;;5093568;28;20430;-71
2023/06/06 07:15:19;;;;;;;0.93;0.88;;;16.20;99.90;;;;;;5095252;28;20377;-71
2023/06/06 07:17:51;;;;;;;;;;;16.40;99.90;;;;;;5094870;28;20491;-71
2023/06/06 07:20:19;;;;;;;0.55;0.55;;;16.50;99.90;;;;;;5094741;28;19916;-71
2023/06/06 07:22:45;;;;;;;0.47;0.47;;;16.60;99.90;;;;;;5094880;28;20036;-71
2023/06/06 07:25:11;;;;;;;0.40;0.40;;;16.60;99.90;;;;;;5094633;28;20372;-71
2023/06/06 07:27:37;;;;;;;0.40;0.40;;;16.70;99.90;;;;;;5094232;28;20040;-71
2023/06/06 07:30:06;;;;;;;0.50;0.50;;;16.80;99.90;;;;;;5094488;28;20040;-72
2023/06/06 07:32:33;;;;;;;1.05;0.60;;;16.70;99.90;;;;;;5093607;28;20043;-70
2023/06/06 07:34:59;;;;;;;0.98;0.95;;;16.80;99.90;;;;;;5094415;28;20051;-71
2023/06/06 07:37:24;;;;;;;0.93;0.70;;;17.00;99.90;;;;;;5094536;28;20036;-70
2023/06/06 07:39:51;;;;;;;0.40;0.40;;;17.10;99.90;;;;;;5094342;28;20164;-71
2023/06/06 07:42:16;;;;;;;0.40;0.40;;;17.20;99.90;;;;;;5094209;28;20044;-71
2023/06/06 07:44:42;;;;;;;0.40;0.40;;;17.30;99.90;;;;;;5094291;28;20443;-70
2023/06/06 07:47:07;;;;;;;0.40;0.40;;;17.50;99.90;;;;;;5094299;28;20044;-71
2023/06/06 07:49:33;;;;;;;0.60;0.60;;;17.50;99.90;;;;;;5094140;28;20072;-71
2023/06/06 07:51:59;;;;;;;0.70;0.70;;;17.60;99.90;;;;;;5093235;28;20119;-71
2023/06/06 07:54:24;;;;;;;0.60;0.60;;;17.60;99.90;;;;;;5092898;28;20058;-71
2023/06/06 07:56:50;;;;;;;0.40;0.40;;;17.60;99.90;;;;;;5094011;28;20043;-71
2023/06/06 07:59:17;;;;;;;0.30;0.30;;;17.70;99.90;;;;;;5094087;28;20375;-73
2023/06/06 08:01:43;;;;;;;0.40;0.40;;;17.70;99.90;;;;;;5092844;28;20069;-72
2023/06/06 08:04:09;;;;;;;0.40;0.40;;;17.80;99.90;;;;;;5094144;28;20063;-73
2023/06/06 08:06:37;;;;;;;0.40;0.40;;;17.90;99.90;;;;;;5094262;28;20237;-72
2023/06/06 08:09:06;;;;;;;0.30;0.30;;;18.10;99.90;;;;;;5093832;28;20055;-72
2023/06/06 08:11:34;;;;;;;0.30;0.30;;;18.20;99.90;;;;;;5093882;28;20058;-71
2023/06/06 08:13:59;;;;;;;0.40;0.40;;;18.40;99.90;;;;;;5094248;28;20043;-70
2023/06/06 08:16:25;;;;;;;0.40;0.40;;;18.30;99.90;;;;;;5093809;28;20036;-70
2023/06/06 08:18:50;;;;;;;0.30;0.30;;;18.50;99.90;;;;;;5092340;28;20042;-71
2023/06/06 08:21:16;;;;;;;0.50;0.50;;;18.50;99.90;;;;;;5093762;28;20057;-71
2023/06/06 08:23:42;;;;;;;9.60;3.80;;;18.50;99.90;;;;;;5093680;28;20036;-72
2023/06/06 08:26:07;;;;;;;0.83;0.60;;;18.40;99.90;;;;;;5093601;28;20044;-72
2023/06/06 08:28:33;;;;;;;0.40;0.40;;;18.40;99.90;;;;;;5094113;28;20044;-71
2023/06/06 08:31:01;;;;;;;0.40;0.40;;;18.40;99.90;;;;;;5094185;28;20410;-72
2023/06/06 08:33:26;;;;;;;0.75;0.50;;;18.50;99.90;;;;;;5093630;28;20169;-71
2023/06/06 08:35:52;;;;;;;0.40;0.40;;;18.60;99.90;;;;;;5093699;28;20067;-71
2023/06/06 08:38:18;;;;;;;0.40;0.40;;;18.70;99.90;;;;;;5093569;28;20051;-71
2023/06/06 08:40:44;;;;;;;0.37;0.37;;;18.90;99.90;;;;;;5093482;28;20085;-71
2023/06/06 08:43:12;;;;;;;0.30;0.30;;;19.00;99.90;;;;;;5093981;28;20055;-71
2023/06/06 08:45:43;;;;;;;0.35;0.30;;;19.10;99.90;;;;;;5097049;28;20136;-71
2023/06/06 08:48:10;;;;;;;0.40;0.40;;;19.20;99.90;;;;;;5097646;28;20036;-71
2023/06/06 08:50:38;;;;;;;0.63;0.63;;;19.30;99.90;;;;;;5097557;28;20077;-71
2023/06/06 08:53:05;;;;;;;0.40;0.40;;;19.30;99.90;;;;;;5097505;28;20036;-71
2023/06/06 08:55:35;;;;;;;0.43;0.43;;;19.30;99.90;;;;;;5097473;28;20061;-71
2023/06/06 08:58:03;;;;;;;0.95;0.93;;;19.10;99.90;;;;;;5097207;28;20492;-72
2023/06/06 09:00:29;;;;;;;1.30;0.80;;;19.20;99.90;;;;;;5097103;28;20422;-71
2023/06/06 09:02:55;;;;;;;0.40;0.40;;;19.10;99.90;;;;;;5097697;28;20063;-71
2023/06/06 09:05:21;;;;;;;0.35;0.35;;;19.30;99.90;;;;;;5097516;28;20124;-71
2023/06/06 09:07:50;;;;;;;0.57;0.40;;;19.40;99.90;;;;;;5097263;28;20071;-72
2023/06/06 09:10:17;;;;;;;2.05;0.77;;;19.70;99.90;;;;;;5098168;28;20040;-71
2023/06/06 09:12:44;;;;;;;0.50;0.50;;;19.90;99.90;;;;;;5095930;28;20040;-71
2023/06/06 09:15:10;;;;;;;0.30;0.30;;;20.00;99.90;;;;;;5097101;28;20048;-71
2023/06/06 09:17:40;;;;;;;0.50;0.50;;;20.10;99.90;;;;;;5097023;28;20040;-72
2023/06/06 09:20:11;;;;;;;0.30;0.30;;;20.30;99.90;;;;;;5095829;28;20044;-72
2023/06/06 09:22:44;;;;;;;0.30;0.30;;;20.40;99.90;;;;;;5096888;28;20044;-71
2023/06/06 09:25:20;;;;;;;0.40;0.40;;;20.40;99.90;;;;;;5097423;28;20105;-71
2023/06/06 09:27:46;;;;;;;0.40;0.40;;;20.50;99.90;;;;;;5096980;28;20066;-71
2023/06/06 09:30:19;;;;;;;0.30;0.30;;;20.30;99.90;;;;;;5096654;28;20464;-70
2023/06/06 09:32:46;;;;;;;0.30;0.30;;;20.20;99.90;;;;;;5096815;28;20044;-71
2023/06/06 09:35:15;;;;;;;0.63;0.63;;;20.40;99.90;;;;;;5096695;28;20481;-71
2023/06/06 09:37:40;;;;;;;0.30;0.30;;;20.40;99.90;;;;;;5096622;28;20075;-71
2023/06/06 09:40:12;;;;;;;0.50;0.50;;;20.50;99.90;;;;;;5096692;28;20477;-71
2023/06/06 09:42:40;;;;;;;0.60;0.50;;;20.70;99.90;;;;;;5096617;28;20063;-71
2023/06/06 09:45:15;;;;;;;0.50;0.50;;;20.70;99.90;;;;;;5096652;28;20052;-71
2023/06/06 09:47:45;;;;;;;0.30;0.30;;;20.70;99.90;;;;;;5096563;28;20048;-71
2023/06/06 09:50:13;;;;;;;0.40;0.40;;;20.70;99.90;;;;;;5096472;28;20409;-72
2023/06/06 09:52:39;;;;;;;0.30;0.30;;;20.70;99.90;;;;;;5096456;28;20082;-72
2023/06/06 09:55:06;;;;;;;0.30;0.30;;;20.80;99.90;;;;;;5096035;28;20455;-72
2023/06/06 09:57:35;;;;;;;0.57;0.57;;;20.90;99.90;;;;;;5095710;28;20036;-72
2023/06/06 10:00:08;;;;;;;0.45;0.45;;;21.00;99.90;;;;;;5096227;28;20093;-72
2023/06/06 10:02:35;;;;;;;0.30;0.30;;;21.10;99.90;;;;;;5096385;28;20088;-72
2023/06/06 10:05:02;;;;;;;0.30;0.30;;;21.20;99.90;;;;;;5096701;28;20055;-71
2023/06/06 10:07:29;;;;;;;0.30;0.30;;;21.10;99.90;;;;;;5096213;28;20036;-72
2023/06/06 10:09:56;;;;;;;0.30;0.30;;;21.10;99.90;;;;;;5096074;28;20036;-72
2023/06/06 10:12:22;;;;;;;;;;;21.00;99.90;;;;;;5096770;28;20044;-72
2023/06/06 10:14:48;;;;;;;0.30;0.30;;;21.20;99.90;;;;;;5096064;28;19973;-71
2023/06/06 10:17:14;;;;;;;0.30;0.30;;;21.30;99.90;;;;;;5096424;28;20071;-72
2023/06/06 10:19:41;;;;;;;0.35;0.35;;;21.30;99.90;;;;;;5095938;28;20349;-71
2023/06/06 10:22:07;;;;;;;0.30;0.30;;;21.30;99.90;;;;;;5095891;28;20042;-72
2023/06/06 10:24:33;;;;;;;0.77;0.50;;;21.50;99.90;;;;;;5095878;28;20039;-72
2023/06/06 10:27:14;;;;;;;0.30;0.30;;;21.70;99.90;;;;;;5095776;28;20115;-72
2023/06/06 10:30:01;;;;;;;0.30;0.30;;;21.80;99.90;;;;;;5095689;28;20036;-72
2023/06/06 10:32:50;;;;;;;0.30;0.30;;;21.90;99.90;;;;;;5095724;28;20040;-71
2023/06/06 10:35:17;;;;;;;3.13;0.70;;;22.00;99.90;;;;;;5095671;28;20040;-72
2023/06/06 10:38:04;;;;;;;0.35;0.35;;;22.10;99.90;;;;;;5095498;28;20464;-72
2023/06/06 10:40:47;;;;;;;0.88;0.88;;;22.30;99.90;;;;;;5095299;28;20460;-72
2023/06/06 10:43:15;;;;;;;0.40;0.40;;;22.20;99.90;;;;;;5095518;28;20115;-73
2023/06/06 10:45:45;;;;;;;0.60;0.60;;;22.20;99.90;;;;;;5095476;28;20430;-72
2023/06/06 10:48:13;;;;;;;0.30;0.30;;;22.10;99.90;;;;;;5095375;28;20126;-72
2023/06/06 10:50:53;;;;;;;0.90;0.43;;;22.00;99.90;;;;;;5095220;28;20044;-72
2023/06/06 10:53:19;;;;;;;0.40;0.40;;;22.10;99.90;;;;;;5095260;28;20043;-73
2023/06/06 10:55:45;;;;;;;0.30;0.30;;;22.40;99.90;;;;;;5094125;28;20044;-72
2023/06/06 10:58:17;;;;;;;;;;;22.60;99.90;;;;;;5095490;28;20036;-72
2023/06/06 11:00:48;;;;;;;0.30;0.30;;;22.80;99.90;;;;;;5095122;28;19918;-72
2023/06/06 11:03:19;;;;;;;0.40;0.40;;;22.90;99.90;;;;;;5095636;28;20048;-72
2023/06/06 11:06:00;;;;;;;0.30;0.30;;;22.90;99.90;;;;;;5095188;28;20349;-72
2023/06/06 11:08:36;;;;;;;0.40;0.40;;;23.10;99.90;;;;;;5094587;28;20119;-73
2023/06/06 11:11:20;;;;;;;0.50;0.50;;;23.00;99.90;;;;;;5094884;28;20072;-72
2023/06/06 11:14:08;;;;;;;0.30;0.30;;;23.00;99.90;;;;;;5095422;28;20066;-71
2023/06/06 11:16:39;;;;;;;0.82;0.60;;;22.70;99.90;;;;;;5094694;28;20047;-72
2023/06/06 11:19:08;;;;;;;0.45;0.45;;;22.80;99.90;;;;;;5094642;28;20134;-72
2023/06/06 11:21:47;;;;;;;0.30;0.30;;;22.90;99.90;;;;;;5094665;28;20379;-71
2023/06/06 11:24:14;;;;;;;0.85;0.85;;;23.10;99.90;;;;;;5094652;28;20035;-72
2023/06/06 11:26:41;;;;;;;0.30;0.30;;;23.10;99.90;;;;;;5094624;28;20036;-72
2023/06/06 11:29:09;;;;;;;0.32;0.32;;;23.10;99.90;;;;;;5094424;28;20090;-71
2023/06/06 11:31:36;;;;;;;0.40;0.40;;;23.20;99.90;;;;;;5094521;28;20043;-73
2023/06/06 11:34:06;;;;;;;0.73;0.73;;;23.40;99.90;;;;;;5094603;28;20040;-72
2023/06/06 11:36:37;;;;;;;0.30;0.30;;;23.60;99.90;;;;;;5094370;28;20126;-72
2023/06/06 11:39:04;;;;;;;0.70;0.70;;;23.50;99.90;;;;;;5094372;28;20076;-73
2023/06/06 11:41:33;;;;;;;0.30;0.30;;;23.50;99.90;;;;;;5094285;28;20027;-71
2023/06/06 11:43:59;;;;;;;0.82;0.52;;;23.60;99.90;;;;;;5094214;28;20032;-72
2023/06/06 11:46:25;;;;;;;0.28;0.28;;;23.50;99.90;;;;;;5094078;28;20028;-72
2023/06/06 11:48:58;;;;;;;0.30;0.30;;;23.60;99.90;;;;;;5094083;28;20040;-72
2023/06/06 11:51:23;;;;;;;0.65;0.65;;;23.40;99.90;;;;;;5094099;28;20421;-72
2023/06/06 11:53:49;;;;;;;0.37;0.37;;;23.50;99.90;;;;;;5094035;28;20048;-72
2023/06/06 11:56:19;;;;;;;0.77;0.77;;;23.50;99.90;;;;;;5094319;28;20050;-72
2023/06/06 11:58:45;;;;;;;0.38;0.38;;;23.40;99.90;;;;;;5093745;28;20475;-73
2023/06/06 12:01:15;;;;;;;0.38;0.38;;;23.60;99.90;;;;;;5093941;28;20040;-71
2023/06/06 12:03:41;;;;;;;0.30;0.30;;;23.80;99.90;;;;;;5093835;28;20101;-72
2023/06/06 12:06:07;;;;;;;;;;;23.90;99.90;;;;;;5094435;28;20388;-73
2023/06/06 12:08:37;;;;;;;0.60;0.60;;;23.90;99.90;;;;;;5093891;28;19916;-72
2023/06/06 12:11:26;;;;;;;0.30;0.30;;;23.90;99.90;;;;;;5094101;28;20399;-73
2023/06/06 12:13:53;;;;;;;0.30;0.30;;;23.80;99.90;;;;;;5093814;28;20074;-73
2023/06/06 12:16:27;;;;;;;0.30;0.30;;;23.70;99.90;;;;;;5094193;28;20062;-73
2023/06/06 12:18:56;;;;;;;0.40;0.40;;;23.70;99.90;;;;;;5093090;28;20539;-71
2023/06/06 12:21:23;;;;;;;0.40;0.40;;;23.80;99.90;;;;;;5109550;28;20085;-73
2023/06/06 12:23:49;;;;;;;0.43;0.43;;;23.80;99.90;;;;;;5093947;28;20368;-73
2023/06/06 12:26:16;;;;;;;0.30;0.30;;;23.70;99.90;;;;;;5093841;28;20040;-72
2023/06/06 12:28:56;;;;;;;0.40;0.40;;;23.80;99.90;;;;;;5093594;28;20044;-72
2023/06/06 12:31:22;;;;;;;0.30;0.30;;;23.90;99.90;;;;;;5093957;28;20124;-72
2023/06/06 12:33:47;;;;;;;0.70;0.68;;;23.80;99.90;;;;;;5093832;28;20109;-73
2023/06/06 12:36:18;;;;;;;0.40;0.40;;;23.90;99.90;;;;;;5093615;28;20040;-73
2023/06/06 12:38:52;;;;;;;0.30;0.30;;;24.10;99.90;;;;;;5093522;28;20361;-72
2023/06/06 12:41:17;;;;;;;0.30;0.30;;;24.20;99.90;;;;;;5093527;28;20040;-73
2023/06/06 12:43:43;;;;;;;0.30;0.30;;;24.10;99.90;;;;;;5093553;28;20036;-72
2023/06/06 12:46:09;;;;;;;0.37;0.37;;;24.30;99.90;;;;;;5093516;28;20048;-72
2023/06/06 12:48:34;;;;;;;0.30;0.30;;;24.20;99.90;;;;;;5093518;28;20040;-73
2023/06/06 12:51:01;;;;;;;0.30;0.30;;;24.10;99.90;;;;;;5092299;28;20301;-73